ESOK/KSD METAR and TAF weather

Enter ICAO airport designator
Station Type Date Time Source
ESOK METAR 2019/07/17 18:20 UTC NOAA

ESOK 171820Z AUTO 18006KT 9999 R03/P1500N R21///// NCD 20/11 Q1011


Station Type Date Time Source
ESOK Decoded METAR 2019/07/17 18:20 UTC NOAA

Karlstad , Sweden (ESOK) 59-26-41N 013-20-15E
Jul 17, 2019 - 02:20 PM EDT / 2019.07.17 1820 UTC
Wind: from the S (180 degrees) at 7 MPH (6 KT):0
Visibility: greater than 7 mile(s):0
Temperature: 68 F (20 C)
Dew Point: 51 F (11 C)
Relative Humidity: 56%
Pressure (altimeter): 29.85 in. Hg (1011 hPa)
ob: ESOK 171820Z AUTO 18006KT 9999 R03/P1500N R21///// NCD 20/11 Q1011
cycle: 18

Station Type Date Time Source
ESOK TAF 2017/05/22 06:33 UTC NOAA

TAF ESOK 220530Z 2206/2224 28006KT CAVOK

Example: see airport list